sensor_id;sensor_type;location;lat;lon;timestamp;pressure;altitude;pressure_sealevel;temperature;humidity
69239;BME280;56349;51.816;-0.026;2023-02-15T00:02:12;102097.56;;;21.78;32.68
69239;BME280;56349;51.816;-0.026;2023-02-15T00:04:37;102094.09;;;21.66;32.81
69239;BME280;56349;51.816;-0.026;2023-02-15T00:07:03;102095.97;;;21.75;32.95
69239;BME280;56349;51.816;-0.026;2023-02-15T00:09:29;102095.21;;;21.42;33.08
69239;BME280;56349;51.816;-0.026;2023-02-15T00:11:55;102092.72;;;21.49;33.24
69239;BME280;56349;51.816;-0.026;2023-02-15T00:14:23;102089.62;;;21.37;33.39
69239;BME280;56349;51.816;-0.026;2023-02-15T00:16:48;102086.47;;;21.02;33.53
69239;BME280;56349;51.816;-0.026;2023-02-15T00:19:14;102078.41;;;21.39;33.68
69239;BME280;56349;51.816;-0.026;2023-02-15T00:21:39;102069.46;;;21.28;33.80
69239;BME280;56349;51.816;-0.026;2023-02-15T00:24:05;102063.34;;;21.17;33.93
69239;BME280;56349;51.816;-0.026;2023-02-15T00:26:29;102062.49;;;20.80;34.07
69239;BME280;56349;51.816;-0.026;2023-02-15T00:28:55;102059.70;;;20.97;34.19
69239;BME280;56349;51.816;-0.026;2023-02-15T00:31:20;102059.11;;;20.89;34.28
69239;BME280;56349;51.816;-0.026;2023-02-15T00:33:46;102056.54;;;20.53;34.37
69239;BME280;56349;51.816;-0.026;2023-02-15T00:36:11;102057.28;;;20.71;34.48
69239;BME280;56349;51.816;-0.026;2023-02-15T00:38:36;102052.44;;;20.84;34.56
69239;BME280;56349;51.816;-0.026;2023-02-15T00:41:03;102052.03;;;20.54;34.66
69239;BME280;56349;51.816;-0.026;2023-02-15T00:43:28;102045.81;;;20.45;34.77
69239;BME280;56349;51.816;-0.026;2023-02-15T00:45:52;102041.41;;;20.36;34.86
69239;BME280;56349;51.816;-0.026;2023-02-15T00:48:18;102044.24;;;20.30;34.93
69239;BME280;56349;51.816;-0.026;2023-02-15T00:50:45;102043.76;;;20.22;35.01
69239;BME280;56349;51.816;-0.026;2023-02-15T00:53:09;102041.09;;;20.14;35.08
69239;BME280;56349;51.816;-0.026;2023-02-15T00:55:34;102033.85;;;20.30;35.12
69239;BME280;56349;51.816;-0.026;2023-02-15T00:58:00;102028.02;;;20.22;35.23
69239;BME280;56349;51.816;-0.026;2023-02-15T01:00:26;102031.00;;;19.92;35.30
69239;BME280;56349;51.816;-0.026;2023-02-15T01:02:52;102031.11;;;20.09;35.36
69239;BME280;56349;51.816;-0.026;2023-02-15T01:05:18;102027.31;;;20.05;35.39
69239;BME280;56349;51.816;-0.026;2023-02-15T01:07:43;102019.12;;;19.77;35.47
69239;BME280;56349;51.816;-0.026;2023-02-15T01:10:09;102015.63;;;19.96;35.49
69239;BME280;56349;51.816;-0.026;2023-02-15T01:12:35;102015.81;;;20.11;35.54
69239;BME280;56349;51.816;-0.026;2023-02-15T01:15:02;102006.85;;;20.05;35.61
69239;BME280;56349;51.816;-0.026;2023-02-15T01:17:28;102003.01;;;19.76;35.66
69239;BME280;56349;51.816;-0.026;2023-02-15T01:19:54;102002.21;;;19.93;35.72
69239;BME280;56349;51.816;-0.026;2023-02-15T01:22:19;102000.72;;;19.64;35.78
69239;BME280;56349;51.816;-0.026;2023-02-15T01:24:48;101996.28;;;19.59;35.81
69239;BME280;56349;51.816;-0.026;2023-02-15T01:27:10;101995.17;;;19.54;35.87
69239;BME280;56349;51.816;-0.026;2023-02-15T01:29:38;101993.68;;;19.71;35.92
69239;BME280;56349;51.816;-0.026;2023-02-15T01:32:08;101993.16;;;19.67;35.96
69239;BME280;56349;51.816;-0.026;2023-02-15T01:34:29;101996.78;;;19.62;36.00
69239;BME280;56349;51.816;-0.026;2023-02-15T01:36:54;101999.14;;;19.58;36.03
69239;BME280;56349;51.816;-0.026;2023-02-15T01:39:20;101995.31;;;19.54;36.07
69239;BME280;56349;51.816;-0.026;2023-02-15T01:41:46;101987.44;;;19.77;36.11
69239;BME280;56349;51.816;-0.026;2023-02-15T01:46:42;101982.00;;;19.69;36.15
69239;BME280;56349;51.816;-0.026;2023-02-15T01:49:08;101975.87;;;19.40;36.15
69239;BME280;56349;51.816;-0.026;2023-02-15T01:51:31;101970.01;;;19.37;36.16
69239;BME280;56349;51.816;-0.026;2023-02-15T01:53:58;101970.36;;;19.34;36.19
69239;BME280;56349;51.816;-0.026;2023-02-15T01:56:23;101970.69;;;19.29;36.23
69239;BME280;56349;51.816;-0.026;2023-02-15T01:58:46;101967.41;;;19.25;36.25
69239;BME280;56349;51.816;-0.026;2023-02-15T02:01:11;101961.52;;;19.21;36.29
69239;BME280;56349;51.816;-0.026;2023-02-15T02:03:42;101956.46;;;19.43;36.32
69239;BME280;56349;51.816;-0.026;2023-02-15T02:06:01;101954.37;;;19.40;36.35
69239;BME280;56349;51.816;-0.026;2023-02-15T02:08:26;101952.22;;;19.12;36.36
69239;BME280;56349;51.816;-0.026;2023-02-15T02:10:52;101947.72;;;19.13;36.33
69239;BME280;56349;51.816;-0.026;2023-02-15T02:13:22;101946.44;;;19.10;36.30
69239;BME280;56349;51.816;-0.026;2023-02-15T02:15:49;101943.16;;;19.33;36.34
69239;BME280;56349;51.816;-0.026;2023-02-15T02:18:19;101938.20;;;19.28;36.37
69239;BME280;56349;51.816;-0.026;2023-02-15T02:23:13;101922.96;;;18.93;36.44
69239;BME280;56349;51.816;-0.026;2023-02-15T02:25:47;101918.90;;;19.16;36.44
69239;BME280;56349;51.816;-0.026;2023-02-15T02:27:56;101910.60;;;19.11;36.48
69239;BME280;56349;51.816;-0.026;2023-02-15T02:35:13;101899.36;;;19.02;36.51
69239;BME280;56349;51.816;-0.026;2023-02-15T02:37:41;101897.08;;;19.19;36.53
69239;BME280;56349;51.816;-0.026;2023-02-15T02:40:04;101901.50;;;18.94;36.55
69239;BME280;56349;51.816;-0.026;2023-02-15T02:42:28;101901.33;;;18.90;36.57
69239;BME280;56349;51.816;-0.026;2023-02-15T02:44:51;101895.74;;;19.08;36.60
69239;BME280;56349;51.816;-0.026;2023-02-15T02:47:18;101893.32;;;18.82;36.63
69239;BME280;56349;51.816;-0.026;2023-02-15T02:49:41;101885.50;;;19.00;36.64
69239;BME280;56349;51.816;-0.026;2023-02-15T02:52:31;101878.49;;;18.99;36.63
69239;BME280;56349;51.816;-0.026;2023-02-15T02:54:30;101877.36;;;18.95;36.63
69239;BME280;56349;51.816;-0.026;2023-02-15T02:56:56;101877.11;;;18.93;36.62
69239;BME280;56349;51.816;-0.026;2023-02-15T02:59:24;101877.88;;;18.68;36.64
69239;BME280;56349;51.816;-0.026;2023-02-15T03:01:49;101876.08;;;18.65;36.65
69239;BME280;56349;51.816;-0.026;2023-02-15T03:04:13;101881.37;;;18.84;36.67
69239;BME280;56349;51.816;-0.026;2023-02-15T03:06:40;101888.12;;;18.82;36.67
69239;BME280;56349;51.816;-0.026;2023-02-15T03:09:08;101887.97;;;18.80;36.67
69239;BME280;56349;51.816;-0.026;2023-02-15T03:11:28;101895.50;;;18.77;36.69
69239;BME280;56349;51.816;-0.026;2023-02-15T03:13:54;101892.01;;;18.73;36.71
69239;BME280;56349;51.816;-0.026;2023-02-15T03:16:21;101890.15;;;18.47;36.74
69239;BME280;56349;51.816;-0.026;2023-02-15T03:18:48;101887.53;;;18.67;36.73
69239;BME280;56349;51.816;-0.026;2023-02-15T03:21:13;101883.50;;;18.43;36.75
69239;BME280;56349;51.816;-0.026;2023-02-15T03:23:37;101877.94;;;18.41;36.75
69239;BME280;56349;51.816;-0.026;2023-02-15T03:26:10;101874.87;;;18.60;36.72
69239;BME280;56349;51.816;-0.026;2023-02-15T03:28:31;101871.81;;;18.56;36.77
69239;BME280;56349;51.816;-0.026;2023-02-15T03:30:57;101872.87;;;18.54;36.77
69239;BME280;56349;51.816;-0.026;2023-02-15T03:33:21;101869.67;;;18.53;36.76
69239;BME280;56349;51.816;-0.026;2023-02-15T03:35:50;101863.98;;;18.30;36.74
69239;BME280;56349;51.816;-0.026;2023-02-15T03:38:16;101858.79;;;18.49;36.74
69239;BME280;56349;51.816;-0.026;2023-02-15T03:40:40;101852.08;;;18.46;36.74
69239;BME280;56349;51.816;-0.026;2023-02-15T03:43:10;101847.23;;;18.44;36.75
69239;BME280;56349;51.816;-0.026;2023-02-15T03:45:31;101842.96;;;18.42;36.75
69239;BME280;56349;51.816;-0.026;2023-02-15T03:47:56;101839.96;;;18.40;36.76
69239;BME280;56349;51.816;-0.026;2023-02-15T03:50:24;101838.42;;;18.37;36.77
69239;BME280;56349;51.816;-0.026;2023-02-15T03:52:46;101840.43;;;18.35;36.78
69239;BME280;56349;51.816;-0.026;2023-02-15T03:55:12;101838.04;;;18.32;36.78
69239;BME280;56349;51.816;-0.026;2023-02-15T03:57:37;101836.17;;;18.28;36.79
69239;BME280;56349;51.816;-0.026;2023-02-15T04:00:12;101841.46;;;18.26;36.81
69239;BME280;56349;51.816;-0.026;2023-02-15T04:02:35;101838.34;;;18.21;36.84
69239;BME280;56349;51.816;-0.026;2023-02-15T04:04:54;101834.91;;;18.17;36.86
69239;BME280;56349;51.816;-0.026;2023-02-15T04:07:20;101831.67;;;18.42;36.87
69239;BME280;56349;51.816;-0.026;2023-02-15T04:09:46;101832.39;;;18.14;36.86
69239;BME280;56349;51.816;-0.026;2023-02-15T04:12:12;101828.53;;;18.10;36.88
69239;BME280;56349;51.816;-0.026;2023-02-15T04:14:38;101819.30;;;18.34;36.89
69239;BME280;56349;51.816;-0.026;2023-02-15T04:17:09;101816.75;;;18.03;36.91
69239;BME280;56349;51.816;-0.026;2023-02-15T04:19:30;101815.14;;;17.99;36.92
69239;BME280;56349;51.816;-0.026;2023-02-15T04:22:01;101813.92;;;17.96;36.94
69239;BME280;56349;51.816;-0.026;2023-02-15T04:24:31;101809.63;;;17.95;36.94
69239;BME280;56349;51.816;-0.026;2023-02-15T04:26:47;101809.04;;;18.20;36.93
69239;BME280;56349;51.816;-0.026;2023-02-15T04:29:13;101810.07;;;17.91;36.93
69239;BME280;56349;51.816;-0.026;2023-02-15T04:31:38;101809.21;;;17.89;36.96
69239;BME280;56349;51.816;-0.026;2023-02-15T04:34:04;101810.63;;;17.90;37.01
69239;BME280;56349;51.816;-0.026;2023-02-15T04:36:30;101810.86;;;17.98;37.04
69239;BME280;56349;51.816;-0.026;2023-02-15T04:39:05;101810.38;;;18.13;37.00
69239;BME280;56349;51.816;-0.026;2023-02-15T04:41:21;101811.57;;;18.32;36.90
69239;BME280;56349;51.816;-0.026;2023-02-15T04:43:47;101807.08;;;18.32;36.69
69239;BME280;56349;51.816;-0.026;2023-02-15T04:46:13;101805.15;;;18.76;36.37
69239;BME280;56349;51.816;-0.026;2023-02-15T04:48:39;101802.32;;;18.73;36.08
69239;BME280;56349;51.816;-0.026;2023-02-15T04:51:05;101806.13;;;18.61;35.81
69239;BME280;56349;51.816;-0.026;2023-02-15T04:53:29;101806.01;;;18.71;35.59
69239;BME280;56349;51.816;-0.026;2023-02-15T04:55:55;101804.17;;;19.27;35.42
69239;BME280;56349;51.816;-0.026;2023-02-15T04:58:21;101801.30;;;19.30;35.30
69239;BME280;56349;51.816;-0.026;2023-02-15T05:00:47;101801.22;;;18.80;35.20
69239;BME280;56349;51.816;-0.026;2023-02-15T05:03:12;101799.49;;;19.02;35.16
69239;BME280;56349;51.816;-0.026;2023-02-15T05:05:38;101801.47;;;18.96;35.15
69239;BME280;56349;51.816;-0.026;2023-02-15T05:08:04;101797.00;;;18.92;35.22
69239;BME280;56349;51.816;-0.026;2023-02-15T05:10:35;101796.62;;;18.87;35.33
69239;BME280;56349;51.816;-0.026;2023-02-15T05:12:56;101792.72;;;19.03;35.50
69239;BME280;56349;51.816;-0.026;2023-02-15T05:15:27;101789.47;;;18.96;35.67
69239;BME280;56349;51.816;-0.026;2023-02-15T05:17:48;101791.81;;;18.70;35.83
69239;BME280;56349;51.816;-0.026;2023-02-15T05:20:19;101792.62;;;18.92;36.00
69239;BME280;56349;51.816;-0.026;2023-02-15T05:22:39;101785.91;;;18.69;36.14
69239;BME280;56349;51.816;-0.026;2023-02-15T05:25:05;101781.76;;;18.69;36.30
69239;BME280;56349;51.816;-0.026;2023-02-15T05:27:30;101782.00;;;18.70;36.45
69239;BME280;56349;51.816;-0.026;2023-02-15T05:29:56;101778.16;;;18.73;36.56
69239;BME280;56349;51.816;-0.026;2023-02-15T05:32:22;101774.07;;;18.74;36.72
69239;BME280;56349;51.816;-0.026;2023-02-15T05:34:49;101779.48;;;18.95;36.87
69239;BME280;56349;51.816;-0.026;2023-02-15T05:37:13;101777.93;;;18.96;36.99
69239;BME280;56349;51.816;-0.026;2023-02-15T05:39:39;101774.37;;;18.99;37.11
69239;BME280;56349;51.816;-0.026;2023-02-15T05:42:06;101768.21;;;19.01;37.19
69239;BME280;56349;51.816;-0.026;2023-02-15T05:44:30;101765.12;;;19.04;37.28
69239;BME280;56349;51.816;-0.026;2023-02-15T05:46:58;101770.10;;;19.09;37.33
69239;BME280;56349;51.816;-0.026;2023-02-15T05:49:23;101766.30;;;18.66;37.36
69239;BME280;56349;51.816;-0.026;2023-02-15T05:51:48;101766.53;;;19.19;37.40
69239;BME280;56349;51.816;-0.026;2023-02-15T05:54:14;101769.85;;;19.21;37.44
69239;BME280;56349;51.816;-0.026;2023-02-15T05:56:45;101768.63;;;19.25;37.51
69239;BME280;56349;51.816;-0.026;2023-02-15T05:59:06;101764.47;;;19.28;37.57
69239;BME280;56349;51.816;-0.026;2023-02-15T06:01:32;101762.65;;;19.32;37.57
69239;BME280;56349;51.816;-0.026;2023-02-15T06:03:58;101760.61;;;19.14;37.61
69239;BME280;56349;51.816;-0.026;2023-02-15T06:06:24;101758.81;;;18.91;37.62
69239;BME280;56349;51.816;-0.026;2023-02-15T06:08:51;101759.38;;;19.24;37.62
69239;BME280;56349;51.816;-0.026;2023-02-15T06:11:16;101759.58;;;19.29;37.62
69239;BME280;56349;51.816;-0.026;2023-02-15T06:13:42;101761.52;;;19.56;37.62
69239;BME280;56349;51.816;-0.026;2023-02-15T06:16:08;101756.46;;;19.38;37.58
69239;BME280;56349;51.816;-0.026;2023-02-15T06:18:35;101758.49;;;19.16;37.59
69239;BME280;56349;51.816;-0.026;2023-02-15T06:21:00;101753.25;;;18.98;37.58
69239;BME280;56349;51.816;-0.026;2023-02-15T06:23:26;101749.74;;;19.25;37.53
69239;BME280;56349;51.816;-0.026;2023-02-15T06:25:52;101753.65;;;19.29;37.50
69239;BME280;56349;51.816;-0.026;2023-02-15T06:28:17;101750.81;;;19.34;37.43
69239;BME280;56349;51.816;-0.026;2023-02-15T06:30:43;101753.60;;;19.86;37.33
69239;BME280;56349;51.816;-0.026;2023-02-15T06:33:09;101757.31;;;19.66;37.26
69239;BME280;56349;51.816;-0.026;2023-02-15T06:35:40;101761.11;;;19.68;37.16
69239;BME280;56349;51.816;-0.026;2023-02-15T06:38:00;101753.40;;;19.46;37.05
69239;BME280;56349;51.816;-0.026;2023-02-15T06:40:26;101751.66;;;19.77;36.93
69239;BME280;56349;51.816;-0.026;2023-02-15T06:42:52;101755.94;;;19.56;36.76
69239;BME280;56349;51.816;-0.026;2023-02-15T06:45:18;101757.54;;;19.58;36.61
69239;BME280;56349;51.816;-0.026;2023-02-15T06:47:45;101756.33;;;19.59;36.50
69239;BME280;56349;51.816;-0.026;2023-02-15T06:50:10;101756.18;;;19.57;36.43
69239;BME280;56349;51.816;-0.026;2023-02-15T06:52:40;101753.34;;;19.54;36.38
69239;BME280;56349;51.816;-0.026;2023-02-15T06:55:01;101748.04;;;19.51;36.32
69239;BME280;56349;51.816;-0.026;2023-02-15T06:57:27;101745.61;;;19.53;36.19
69239;BME280;56349;51.816;-0.026;2023-02-15T06:59:53;101745.74;;;19.75;36.16
69239;BME280;56349;51.816;-0.026;2023-02-15T07:02:19;101745.00;;;19.44;36.11
69239;BME280;56349;51.816;-0.026;2023-02-15T07:04:45;101743.23;;;19.65;36.07
69239;BME280;56349;51.816;-0.026;2023-02-15T07:07:11;101741.27;;;19.60;36.05
69239;BME280;56349;51.816;-0.026;2023-02-15T07:09:36;101746.74;;;19.57;36.02
69239;BME280;56349;51.816;-0.026;2023-02-15T07:12:03;101749.89;;;19.27;35.98
69239;BME280;56349;51.816;-0.026;2023-02-15T07:14:28;101749.76;;;19.21;35.97
69239;BME280;56349;51.816;-0.026;2023-02-15T07:16:54;101749.50;;;19.65;35.97
69239;BME280;56349;51.816;-0.026;2023-02-15T07:19:20;101755.09;;;19.38;35.95
69239;BME280;56349;51.816;-0.026;2023-02-15T07:21:45;101753.57;;;19.55;35.96
69239;BME280;56349;51.816;-0.026;2023-02-15T07:24:11;101757.38;;;19.29;35.94
69239;BME280;56349;51.816;-0.026;2023-02-15T07:26:37;101762.54;;;18.99;35.90
69239;BME280;56349;51.816;-0.026;2023-02-15T07:29:03;101763.25;;;18.96;35.83
69239;BME280;56349;51.816;-0.026;2023-02-15T07:31:32;101762.26;;;19.45;35.86
69239;BME280;56349;51.816;-0.026;2023-02-15T07:33:57;101756.69;;;19.02;35.93
69239;BME280;56349;51.816;-0.026;2023-02-15T07:36:21;101758.73;;;19.43;36.08
69239;BME280;56349;51.816;-0.026;2023-02-15T07:38:46;101759.74;;;19.67;36.10
69239;BME280;56349;51.816;-0.026;2023-02-15T07:41:14;101760.59;;;19.64;36.04
69239;BME280;56349;51.816;-0.026;2023-02-15T07:43:40;101759.60;;;19.47;35.89
69239;BME280;56349;51.816;-0.026;2023-02-15T07:46:06;101758.44;;;19.81;35.64
69239;BME280;56349;51.816;-0.026;2023-02-15T07:48:30;101757.63;;;20.21;35.38
69239;BME280;56349;51.816;-0.026;2023-02-15T07:50:58;101754.40;;;20.34;35.02
69239;BME280;56349;51.816;-0.026;2023-02-15T07:53:21;101753.94;;;21.00;34.79
69239;BME280;56349;51.816;-0.026;2023-02-15T07:55:47;101758.24;;;21.11;34.54
69239;BME280;56349;51.816;-0.026;2023-02-15T07:58:13;101761.59;;;21.26;34.17
69239;BME280;56349;51.816;-0.026;2023-02-15T08:00:39;101767.17;;;21.64;33.77
69239;BME280;56349;51.816;-0.026;2023-02-15T08:03:06;101774.19;;;22.00;33.36
69239;BME280;56349;51.816;-0.026;2023-02-15T08:05:36;101780.96;;;21.88;32.94
69239;BME280;56349;51.816;-0.026;2023-02-15T08:07:57;101779.25;;;22.19;32.55
69239;BME280;56349;51.816;-0.026;2023-02-15T08:10:22;101769.35;;;22.46;32.20
69239;BME280;56349;51.816;-0.026;2023-02-15T08:12:53;101772.53;;;22.74;31.83
69239;BME280;56349;51.816;-0.026;2023-02-15T08:15:13;101779.44;;;23.02;31.48
69239;BME280;56349;51.816;-0.026;2023-02-15T08:17:38;101777.52;;;22.79;31.13
69239;BME280;56349;51.816;-0.026;2023-02-15T08:20:06;101774.38;;;23.02;30.79
69239;BME280;56349;51.816;-0.026;2023-02-15T08:22:30;101773.73;;;23.16;30.55
69239;BME280;56349;51.816;-0.026;2023-02-15T08:24:56;101774.94;;;23.32;30.31
69239;BME280;56349;51.816;-0.026;2023-02-15T08:27:23;101770.88;;;23.02;30.13
69239;BME280;56349;51.816;-0.026;2023-02-15T08:29:55;101769.03;;;23.63;30.00
69239;BME280;56349;51.816;-0.026;2023-02-15T08:32:14;101766.02;;;23.59;29.82
69239;BME280;56349;51.816;-0.026;2023-02-15T08:34:41;101761.59;;;23.98;29.64
69239;BME280;56349;51.816;-0.026;2023-02-15T08:37:05;101763.15;;;24.15;29.46
69239;BME280;56349;51.816;-0.026;2023-02-15T08:39:31;101761.82;;;23.85;29.29
69239;BME280;56349;51.816;-0.026;2023-02-15T08:41:57;101767.62;;;23.99;29.14
69239;BME280;56349;51.816;-0.026;2023-02-15T08:44:23;101765.38;;;24.11;28.97
69239;BME280;56349;51.816;-0.026;2023-02-15T08:46:54;101758.77;;;24.47;28.78
69239;BME280;56349;51.816;-0.026;2023-02-15T08:49:18;101752.06;;;24.36;28.62
69239;BME280;56349;51.816;-0.026;2023-02-15T08:51:46;101747.49;;;24.44;28.47
69239;BME280;56349;51.816;-0.026;2023-02-15T08:54:08;101740.65;;;24.52;28.35
69239;BME280;56349;51.816;-0.026;2023-02-15T08:56:34;101738.97;;;24.63;28.21
69239;BME280;56349;51.816;-0.026;2023-02-15T08:58:57;101744.05;;;24.72;28.07
69239;BME280;56349;51.816;-0.026;2023-02-15T09:01:29;101749.38;;;24.53;27.97
69239;BME280;56349;51.816;-0.026;2023-02-15T09:03:50;101752.65;;;24.88;27.89
69239;BME280;56349;51.816;-0.026;2023-02-15T09:06:16;101751.52;;;24.98;27.75
69239;BME280;56349;51.816;-0.026;2023-02-15T09:08:41;101756.03;;;24.77;27.63
69239;BME280;56349;51.816;-0.026;2023-02-15T09:11:09;101755.25;;;24.81;27.54
69239;BME280;56349;51.816;-0.026;2023-02-15T09:13:33;101757.38;;;24.77;27.42
69239;BME280;56349;51.816;-0.026;2023-02-15T09:16:00;101754.04;;;24.73;27.30
69239;BME280;56349;51.816;-0.026;2023-02-15T09:18:24;101750.25;;;24.69;27.16
69239;BME280;56349;51.816;-0.026;2023-02-15T09:20:50;101750.29;;;24.42;27.05
69239;BME280;56349;51.816;-0.026;2023-02-15T09:23:16;101752.03;;;24.57;26.99
69239;BME280;56349;51.816;-0.026;2023-02-15T09:25:42;101754.23;;;24.76;26.97
69239;BME280;56349;51.816;-0.026;2023-02-15T09:28:08;101752.73;;;24.42;26.94
69239;BME280;56349;51.816;-0.026;2023-02-15T09:30:34;101755.62;;;24.66;26.89
69239;BME280;56349;51.816;-0.026;2023-02-15T09:32:59;101753.27;;;24.40;26.80
69239;BME280;56349;51.816;-0.026;2023-02-15T09:35:25;101751.83;;;24.37;26.76
69239;BME280;56349;51.816;-0.026;2023-02-15T09:37:51;101748.29;;;24.36;26.70
69239;BME280;56349;51.816;-0.026;2023-02-15T09:40:17;101744.64;;;24.58;26.66
69239;BME280;56349;51.816;-0.026;2023-02-15T09:45:17;101741.29;;;24.30;26.52
69239;BME280;56349;51.816;-0.026;2023-02-15T09:47:45;101736.25;;;24.29;26.48
69239;BME280;56349;51.816;-0.026;2023-02-15T09:50:04;101731.56;;;24.27;26.43
69239;BME280;56349;51.816;-0.026;2023-02-15T09:52:33;101727.59;;;24.23;26.43
69239;BME280;56349;51.816;-0.026;2023-02-15T09:55:03;101728.67;;;24.48;26.40
69239;BME280;56349;51.816;-0.026;2023-02-15T09:57:20;101730.84;;;24.23;26.34
69239;BME280;56349;51.816;-0.026;2023-02-15T09:59:48;101732.54;;;24.53;26.33
69239;BME280;56349;51.816;-0.026;2023-02-15T10:02:20;101735.81;;;24.34;26.30
69239;BME280;56349;51.816;-0.026;2023-02-15T10:04:46;101737.18;;;24.38;26.34
69239;BME280;56349;51.816;-0.026;2023-02-15T10:07:07;101735.42;;;24.42;26.35
69239;BME280;56349;51.816;-0.026;2023-02-15T10:09:34;101730.08;;;24.72;26.40
69239;BME280;56349;51.816;-0.026;2023-02-15T10:12:01;101725.79;;;24.24;26.49
69239;BME280;56349;51.816;-0.026;2023-02-15T10:16:48;101726.01;;;24.49;26.51
69239;BME280;56349;51.816;-0.026;2023-02-15T10:19:13;101729.96;;;24.55;26.54
69239;BME280;56349;51.816;-0.026;2023-02-15T10:21:42;101734.90;;;24.65;26.52
69239;BME280;56349;51.816;-0.026;2023-02-15T10:24:14;101731.12;;;24.53;26.50
69239;BME280;56349;51.816;-0.026;2023-02-15T10:26:28;101728.64;;;24.81;26.50
69239;BME280;56349;51.816;-0.026;2023-02-15T10:28:50;101723.01;;;24.64;26.53
69239;BME280;56349;51.816;-0.026;2023-02-15T10:31:23;101720.22;;;24.71;26.48
69239;BME280;56349;51.816;-0.026;2023-02-15T10:33:41;101718.05;;;24.92;26.47
69239;BME280;56349;51.816;-0.026;2023-02-15T10:36:16;101719.39;;;24.69;26.43
69239;BME280;56349;51.816;-0.026;2023-02-15T10:38:35;101718.37;;;24.91;26.43
69239;BME280;56349;51.816;-0.026;2023-02-15T10:41:07;101718.08;;;24.68;26.40
69239;BME280;56349;51.816;-0.026;2023-02-15T10:43:37;101716.88;;;24.63;26.45
69239;BME280;56349;51.816;-0.026;2023-02-15T10:45:56;101714.28;;;24.81;26.45
69239;BME280;56349;51.816;-0.026;2023-02-15T10:48:32;101714.06;;;24.76;26.46
69239;BME280;56349;51.816;-0.026;2023-02-15T10:50:46;101709.47;;;24.71;26.46
69239;BME280;56349;51.816;-0.026;2023-02-15T10:55:43;101704.64;;;24.67;26.34
69239;BME280;56349;51.816;-0.026;2023-02-15T10:58:03;101701.62;;;24.63;26.36
69239;BME280;56349;51.816;-0.026;2023-02-15T11:00:27;101698.19;;;24.66;26.32
69239;BME280;56349;51.816;-0.026;2023-02-15T11:03:00;101694.28;;;24.70;26.27
69239;BME280;56349;51.816;-0.026;2023-02-15T11:05:26;101691.51;;;24.98;26.29
69239;BME280;56349;51.816;-0.026;2023-02-15T11:07:42;101685.77;;;24.49;26.46
69239;BME280;56349;51.816;-0.026;2023-02-15T11:10:13;101684.50;;;24.75;26.58
69239;BME280;56349;51.816;-0.026;2023-02-15T11:12:31;101681.58;;;24.57;26.65
69239;BME280;56349;51.816;-0.026;2023-02-15T11:15:02;101680.38;;;24.65;26.71
69239;BME280;56349;51.816;-0.026;2023-02-15T11:17:27;101680.01;;;24.94;26.77
69239;BME280;56349;51.816;-0.026;2023-02-15T11:19:54;101678.47;;;25.00;26.70
69239;BME280;56349;51.816;-0.026;2023-02-15T11:22:19;101673.05;;;25.00;26.75
69239;BME280;56349;51.816;-0.026;2023-02-15T11:24:42;101663.19;;;24.76;26.75
69239;BME280;56349;51.816;-0.026;2023-02-15T11:27:16;101659.80;;;24.98;26.72
69239;BME280;56349;51.816;-0.026;2023-02-15T11:29:35;101665.63;;;24.71;26.81
69239;BME280;56349;51.816;-0.026;2023-02-15T11:31:59;101659.42;;;24.72;26.73
69239;BME280;56349;51.816;-0.026;2023-02-15T11:34:26;101657.48;;;24.95;26.72
69239;BME280;56349;51.816;-0.026;2023-02-15T11:36:50;101651.93;;;24.99;26.77
69239;BME280;56349;51.816;-0.026;2023-02-15T11:39:15;101648.29;;;25.03;26.76
69239;BME280;56349;51.816;-0.026;2023-02-15T11:41:41;101647.82;;;25.03;26.79
69239;BME280;56349;51.816;-0.026;2023-02-15T11:44:10;101639.60;;;24.83;26.80
69239;BME280;56349;51.816;-0.026;2023-02-15T11:46:30;101629.79;;;25.05;26.81
69239;BME280;56349;51.816;-0.026;2023-02-15T11:48:54;101623.62;;;25.06;26.80
69239;BME280;56349;51.816;-0.026;2023-02-15T11:51:21;101618.84;;;24.86;26.77
69239;BME280;56349;51.816;-0.026;2023-02-15T11:53:46;101620.21;;;24.86;26.77
69239;BME280;56349;51.816;-0.026;2023-02-15T11:56:14;101633.53;;;25.06;26.77
69239;BME280;56349;51.816;-0.026;2023-02-15T11:58:40;101629.62;;;24.84;26.77
69239;BME280;56349;51.816;-0.026;2023-02-15T12:01:09;101631.22;;;25.07;26.71
69239;BME280;56349;51.816;-0.026;2023-02-15T12:03:37;101632.47;;;25.33;26.70
69239;BME280;56349;51.816;-0.026;2023-02-15T12:06:00;101626.16;;;24.88;26.68
69239;BME280;56349;51.816;-0.026;2023-02-15T12:08:21;101630.96;;;24.91;26.64
69239;BME280;56349;51.816;-0.026;2023-02-15T12:10:58;101630.95;;;24.89;26.50
69239;BME280;56349;51.816;-0.026;2023-02-15T12:13:14;101630.71;;;25.06;26.45
69239;BME280;56349;51.816;-0.026;2023-02-15T12:15:42;101611.15;;;25.02;26.39
69239;BME280;56349;51.816;-0.026;2023-02-15T12:18:03;101606.10;;;24.81;26.30
69239;BME280;56349;51.816;-0.026;2023-02-15T12:20:32;101597.34;;;24.77;26.13
69239;BME280;56349;51.816;-0.026;2023-02-15T12:22:58;101597.72;;;24.68;26.16
69239;BME280;56349;51.816;-0.026;2023-02-15T12:25:22;101595.62;;;24.66;26.15
69239;BME280;56349;51.816;-0.026;2023-02-15T12:27:46;101592.72;;;25.12;26.12
69239;BME280;56349;51.816;-0.026;2023-02-15T12:30:20;101588.53;;;24.83;26.08
69239;BME280;56349;51.816;-0.026;2023-02-15T12:32:47;101583.79;;;24.57;26.07
69239;BME280;56349;51.816;-0.026;2023-02-15T12:35:07;101579.15;;;24.76;26.04
69239;BME280;56349;51.816;-0.026;2023-02-15T12:37:29;101587.52;;;24.53;26.01
69239;BME280;56349;51.816;-0.026;2023-02-15T12:39:55;101590.57;;;24.99;25.99
69239;BME280;56349;51.816;-0.026;2023-02-15T12:42:19;101589.88;;;24.68;25.99
69239;BME280;56349;51.816;-0.026;2023-02-15T12:47:17;101596.16;;;24.59;25.99
69239;BME280;56349;51.816;-0.026;2023-02-15T12:49:36;101598.35;;;24.35;25.96
69239;BME280;56349;51.816;-0.026;2023-02-15T12:52:02;101591.64;;;24.55;25.96